WetterOnline ( https://www.wetteronline.at )

Wetter aktuell München

Aktuelles Wetter: München/Stadt (535m)

6-stündlich | Neueste Meldungen
Ortszeit Temperatur Wetter
Fr, 03.02. 7:00 4.5° C bedeckt
Fr, 03.02. 1:00 4.3° C leichter Regen
Do, 02.02. 19:00 4.3° C leichter Regen
Do, 02.02. 13:00 4.5° C leichter Regen
Do, 02.02. 7:00 4.1° C leichter Regen
Do, 02.02. 1:00 4.3° C leichter Regen
Mi, 01.02. 19:00 4.5° C bedeckt
Mi, 01.02. 13:00 4.6° C bedeckt
Ortszeit Temperatur Wetter
Fr, 03.02. 9:00 4.9° C bedeckt
Fr, 03.02. 8:40 4.8° C bedeckt
Fr, 03.02. 8:30 4.6° C bedeckt
Fr, 03.02. 8:20 4.6° C bedeckt
Fr, 03.02. 8:10 4.6° C bedeckt
Fr, 03.02. 8:00 4.6° C bedeckt
Fr, 03.02. 7:50 4.6° C bedeckt
Fr, 03.02. 7:30 4.5° C bewölkt
Fr, 03.02. 7:00 4.5° C bedeckt
Fr, 03.02. 6:30 4.5° C bedeckt
Fr, 03.02. 6:00 4.6° C bedeckt
Ortszeit Relative Feuchte Sichtweite
Fr, 03.02. 7:00 73% 55 km
Fr, 03.02. 1:00 80% 50 km
Do, 02.02. 19:00 81% 45 km
Do, 02.02. 13:00 79% 30 km
Do, 02.02. 7:00 74% 28 km
Do, 02.02. 1:00 65% 40 km
Mi, 01.02. 19:00 63% 45 km
Mi, 01.02. 13:00 66% 65 km
Ortszeit Relative Feuchte Sichtweite
Fr, 03.02. 9:00 71% 65 km
Fr, 03.02. 8:40 72% -
Fr, 03.02. 8:30 73% 60 km
Fr, 03.02. 8:20 73% -
Fr, 03.02. 8:10 73% -
Fr, 03.02. 8:00 72% 60 km
Fr, 03.02. 7:50 72% -
Fr, 03.02. 7:30 73% 55 km
Fr, 03.02. 7:00 73% 55 km
Fr, 03.02. 6:30 73% 55 km
Fr, 03.02. 6:00 73% 55 km
Ortszeit Niederschlagsmenge Niederschlagsart
Fr, 03.02. 7:00 1 l/m2 in 12 Std. Regen
Fr, 03.02. 1:00 1 l/m2 in 6 Std. Regen
Do, 02.02. 19:00 2 l/m2 in 12 Std. Regen
Do, 02.02. 13:00 0.1 l/m2 in 6 Std. Regen
Do, 02.02. 7:00 0.1 l/m2 in 12 Std. Regen
Do, 02.02. 1:00 0.1 l/m2 in 6 Std. Regen
Mi, 01.02. 19:00 0.1 l/m2 in 12 Std. Regen
Mi, 01.02. 13:00 0.0 l/m2 in 6 Std. -
Ortszeit Niederschlagsmenge Niederschlagsart
Fr, 03.02. 9:00 <0.05 l/m2 in 1 Std. Regen
Fr, 03.02. 8:40 keine Meldung -
Fr, 03.02. 8:30 0.0 l/m2 in 30 Min -
Fr, 03.02. 8:20 keine Meldung -
Fr, 03.02. 8:10 keine Meldung -
Fr, 03.02. 8:00 0.0 l/m2 in 1 Std. -
Fr, 03.02. 7:50 keine Meldung -
Fr, 03.02. 7:30 0.0 l/m2 in 30 Min -
Fr, 03.02. 7:00 0.0 l/m2 in 1 Std. Regen
Fr, 03.02. 6:30 0.0 l/m2 in 30 Min -
Fr, 03.02. 6:00 0.0 l/m2 in 1 Std. -
Ortszeit Stärke Spitze Richtung
km/h Bft. km/h Grad Sektor
Fr, 03.02. 7:00 28 4 52 250° W
Fr, 03.02. 1:00 22 4 54 250° W
Do, 02.02. 19:00 25 4 68 260° W
Do, 02.02. 13:00 33 5 63 260° W
Do, 02.02. 7:00 31 5 69 260° W
Do, 02.02. 1:00 35 5 69 250° W
Mi, 01.02. 19:00 30 5 56 250° W
Mi, 01.02. 13:00 31 5 54 250° W
Ortszeit Stärke Spitze Richtung
km/h Bft. km/h Grad Sektor
Fr, 03.02. 9:00 24 4 48 240° SW
Fr, 03.02. 8:40 24 4 - 240° SW
Fr, 03.02. 8:30 25 4 47 250° W
Fr, 03.02. 8:20 25 4 - 250° W
Fr, 03.02. 8:10 25 4 - 250° W
Fr, 03.02. 8:00 25 4 50 250° W
Fr, 03.02. 7:50 25 4 - 250° W
Fr, 03.02. 7:30 25 4 50 250° W
Fr, 03.02. 7:00 28 4 52 250° W
Fr, 03.02. 6:30 22 4 40 260° W
Fr, 03.02. 6:00 22 4 40 260° W
Ortszeit Untergrenze Bedeckung Gattung
total tief tief mittel hoch
Fr, 03.02. 7:00 660 m 8/8 8/8 - - -
Fr, 03.02. 1:00 720 m 7/8 7/8 - - -
Do, 02.02. 19:00 510 m 7/8 7/8 - - -
Do, 02.02. 13:00 540 m 8/8 8/8 - - -
Do, 02.02. 7:00 690 m 8/8 8/8 - - -
Do, 02.02. 1:00 990 m 7/8 7/8 - - -
Mi, 01.02. 19:00 1440 m 8/8 8/8 - - -
Mi, 01.02. 13:00 1500 m 8/8 8/8 - - -
Ortszeit Bedeckungsgrad in Achtel und Wolkenuntergrenze
Fr, 03.02. 9:00 1(780m) 8(1470m) 8(4500m)
Fr, 03.02. 8:40 8
Fr, 03.02. 8:30 7(1110m) 8(1440m)
Fr, 03.02. 8:20 7(1110m) 8(1440m)
Fr, 03.02. 8:10 8
Fr, 03.02. 8:00 7(1260m) 8(1470m)
Fr, 03.02. 7:50 7(1260m) 8(1470m)
Fr, 03.02. 7:30 2(840m) 7(1320m)
Fr, 03.02. 7:00 1(660m) 7(840m) 8(1500m)
Fr, 03.02. 6:30 5(690m) 7(840m) 8(1500m)
Fr, 03.02. 6:00 8(690m)
Ortszeit Luftdruck NN (hPa) Tendenz (hPa in 3 Std.)
Fr, 03.02. 7:00 1030 - 0,4
Fr, 03.02. 1:00 1030 + 0,5
Do, 02.02. 19:00 1028 + 2,0
Do, 02.02. 13:00 1025 + 0,1
Do, 02.02. 7:00 1023 + 0,5
Do, 02.02. 1:00 1023 - 0,3
Mi, 01.02. 19:00 1023 + 0,4
Mi, 01.02. 13:00 1024 + 0,3
Ortszeit Luftdruck NN (hPa) Tendenz (hPa in 3 Std.)
Fr, 03.02. 9:00 1029 - 0,7
Fr, 03.02. 8:40 1029 keine Meldung
Fr, 03.02. 8:30 1030 - 0,2
Fr, 03.02. 8:20 1030 keine Meldung
Fr, 03.02. 8:10 1030 keine Meldung
Fr, 03.02. 8:00 1030 + 0,3
Fr, 03.02. 7:50 1030 keine Meldung
Fr, 03.02. 7:30 1030 - 0,3
Fr, 03.02. 7:00 1030 - 0,4
Fr, 03.02. 6:30 1030 + 0,2
Fr, 03.02. 6:00 1030 + 0,2
Ortszeit Schneehöhe (cm)
Fr, 03.02. 7:00 0
Fr, 03.02. 1:00 0
Do, 02.02. 19:00 0
Do, 02.02. 13:00 0
Do, 02.02. 7:00 0
Do, 02.02. 1:00 0
Mi, 01.02. 19:00 0
Mi, 01.02. 13:00 0
Ortszeit Schneehöhe (cm)
Fr, 03.02. 9:00 0
Fr, 03.02. 8:40 0
Fr, 03.02. 8:30 0
Fr, 03.02. 8:20 0
Fr, 03.02. 8:10 0
Fr, 03.02. 8:00 0
Fr, 03.02. 7:50 0
Fr, 03.02. 7:30 0
Fr, 03.02. 7:00 0
Fr, 03.02. 6:30 0
Fr, 03.02. 6:00 0
Link zu dieser Seite / Seite empfehlen

Das Wetter in ...